Time;durP1;ratioP1;P1;durP2;ratioP2;P2;SDS_P1;SDS_P2;PMS_P1;PMS_P2;Temp;Humidity;BMP_temperature;BMP_pressure;BME280_temperature;BME280_humidity;BME280_pressure;Samples;Min_cycle;Max_cycle;Signal;HPM_P1;HPM_P2
2022/05/11 00:01:26;;;;;;;12.07;10.10;;;15.70;92.10;;;;;;4996896;28;20484;-52
2022/05/11 00:03:52;;;;;;;13.37;11.20;;;15.60;92.50;;;;;;4994233;28;20580;-52
2022/05/11 00:06:19;;;;;;;13.83;10.63;;;15.60;93.00;;;;;;4992699;28;20684;-52
2022/05/11 00:08:46;;;;;;;14.90;11.60;;;15.50;93.00;;;;;;4992888;28;20474;-52
2022/05/11 00:11:14;;;;;;;11.30;10.20;;;15.50;92.90;;;;;;4998979;28;20492;-52
2022/05/11 00:13:41;;;;;;;12.60;11.00;;;15.50;93.40;;;;;;4995556;28;20477;-52
2022/05/11 00:16:09;;;;;;;12.30;11.00;;;15.50;92.90;;;;;;4995291;28;20476;-52
2022/05/11 00:18:36;;;;;;;16.20;10.37;;;15.50;92.60;;;;;;4996756;28;20477;-52
2022/05/11 00:21:03;;;;;;;12.27;10.90;;;15.50;92.40;;;;;;4999399;28;20580;-52
2022/05/11 00:23:30;;;;;;;14.00;10.47;;;15.50;92.40;;;;;;5001207;28;20984;-52
2022/05/11 00:25:56;;;;;;;15.80;10.40;;;15.40;92.50;;;;;;5009963;28;20579;-52
2022/05/11 00:28:23;;;;;;;11.73;10.10;;;15.40;92.30;;;;;;5020192;28;20477;-53
2022/05/11 00:30:50;;;;;;;10.40;9.40;;;15.30;92.20;;;;;;5020936;28;20489;-52
2022/05/11 00:33:19;;;;;;;11.20;9.87;;;15.20;92.20;;;;;;5021350;28;20955;-53
2022/05/11 00:35:48;;;;;;;14.50;9.40;;;15.20;92.10;;;;;;5017547;28;20835;-53
2022/05/11 00:38:16;;;;;;;13.37;9.93;;;15.10;92.30;;;;;;5018848;28;20561;-52
2022/05/11 00:40:46;;;;;;;14.73;9.93;;;15.10;92.40;;;;;;5019690;28;20889;-53
2022/05/11 00:43:14;;;;;;;13.00;10.13;;;14.90;92.80;;;;;;5021013;28;20476;-52
2022/05/11 00:45:46;;;;;;;11.73;10.50;;;14.80;93.10;;;;;;5017986;28;20476;-54
2022/05/11 00:51:09;;;;;;;9.97;8.97;;;14.80;92.60;;;;;;5020489;28;21031;-52
2022/05/11 00:53:37;;;;;;;13.70;9.80;;;14.60;92.60;;;;;;5020541;28;20476;-52
2022/05/11 00:56:05;;;;;;;10.90;9.80;;;14.60;93.00;;;;;;5016906;28;20542;-52
2022/05/11 00:58:37;;;;;;;12.63;10.47;;;14.70;93.00;;;;;;5019911;28;20697;-53
2022/05/11 01:01:04;;;;;;;13.13;10.00;;;14.70;93.10;;;;;;5016883;28;20476;-53
2022/05/11 01:03:35;;;;;;;12.00;10.73;;;14.60;93.20;;;;;;5020546;28;20481;-53
2022/05/11 01:06:02;;;;;;;11.97;10.00;;;14.60;93.10;;;;;;5019716;28;20538;-53
2022/05/11 01:08:31;;;;;;;14.37;11.50;;;14.60;93.10;;;;;;5019470;28;20878;-53
2022/05/11 01:11:00;;;;;;;11.47;9.90;;;14.60;92.90;;;;;;5012313;28;20551;-53
2022/05/11 01:13:27;;;;;;;10.47;9.40;;;14.60;92.50;;;;;;5000614;28;20489;-53
2022/05/11 01:15:54;;;;;;;25.90;9.30;;;14.70;92.30;;;;;;5003646;28;20488;-53
2022/05/11 01:18:24;;;;;;;11.77;8.90;;;14.60;92.30;;;;;;4998104;28;20474;-53
2022/05/11 01:20:51;;;;;;;12.40;10.00;;;14.60;92.30;;;;;;4998241;28;20545;-53
2022/05/11 01:23:27;;;;;;;11.47;10.00;;;14.60;92.20;;;;;;5000185;28;20557;-53
2022/05/11 01:25:55;;;;;;;11.63;9.80;;;14.60;92.30;;;;;;5002954;28;20514;-53
2022/05/11 01:28:22;;;;;;;10.63;9.40;;;14.60;92.20;;;;;;5017757;28;20491;-53
2022/05/11 01:30:52;;;;;;;12.80;8.90;;;14.50;92.20;;;;;;5017237;28;20487;-53
2022/05/11 01:33:22;;;;;;;10.00;9.00;;;14.40;92.30;;;;;;5017330;28;20738;-53
2022/05/11 01:35:58;;;;;;;10.40;9.17;;;14.30;92.10;;;;;;5019895;28;20491;-53
2022/05/11 01:38:35;;;;;;;15.10;9.10;;;14.30;92.00;;;;;;5017456;28;20558;-53
2022/05/11 01:41:03;;;;;;;10.63;9.57;;;14.20;92.00;;;;;;5016717;28;20495;-53
2022/05/11 01:43:33;;;;;;;14.20;10.47;;;14.20;92.10;;;;;;5018119;28;20484;-53
2022/05/11 01:46:00;;;;;;;12.33;9.77;;;14.20;92.40;;;;;;5016722;28;20500;-53
2022/05/11 01:48:28;;;;;;;11.93;10.53;;;14.20;92.50;;;;;;5018393;28;20491;-53
2022/05/11 01:50:55;;;;;;;10.77;9.70;;;14.20;92.40;;;;;;5018061;28;20490;-53
2022/05/11 01:53:23;;;;;;;11.53;10.00;;;14.10;92.60;;;;;;5017500;28;20491;-53
2022/05/11 01:55:50;;;;;;;10.87;9.30;;;14.00;92.60;;;;;;5019419;28;20484;-53
2022/05/11 01:58:19;;;;;;;11.43;10.20;;;14.00;93.00;;;;;;5016964;28;20592;-53
2022/05/11 02:00:47;;;;;;;11.57;10.37;;;13.90;92.80;;;;;;5016343;28;20484;-53
2022/05/11 02:03:17;;;;;;;13.00;9.57;;;13.80;92.90;;;;;;5017411;28;20475;-53
2022/05/11 02:08:28;;;;;;;11.23;9.60;;;13.70;92.50;;;;;;5017104;28;21230;-54
2022/05/11 02:10:55;;;;;;;13.60;8.50;;;13.70;92.80;;;;;;5007668;28;20810;-53
2022/05/11 02:13:24;;;;;;;15.40;11.00;;;13.70;92.50;;;;;;5018997;28;20516;-53
2022/05/11 02:15:51;;;;;;;11.57;10.00;;;13.70;93.00;;;;;;4991290;28;20485;-53
2022/05/11 02:18:18;;;;;;;12.77;10.70;;;13.70;93.00;;;;;;5017723;28;20518;-53
2022/05/11 02:20:44;;;;;;;10.80;9.70;;;13.70;92.80;;;;;;5017999;28;20533;-53
2022/05/11 02:23:14;;;;;;;12.13;9.37;;;13.80;92.50;;;;;;5018648;28;20518;-53
2022/05/11 02:25:43;;;;;;;11.70;9.10;;;13.80;92.30;;;;;;5007483;28;20574;-53
2022/05/11 02:28:10;;;;;;;12.40;10.60;;;13.80;92.20;;;;;;5015462;28;20499;-54
2022/05/11 02:30:38;;;;;;;13.17;10.43;;;13.80;92.90;;;;;;5006097;28;20483;-53
2022/05/11 02:33:05;;;;;;;10.63;9.13;;;13.90;93.20;;;;;;5015327;28;20484;-53
2022/05/11 02:35:32;;;;;;;14.17;11.23;;;13.90;92.90;;;;;;5018582;28;20478;-53
2022/05/11 02:38:00;;;;;;;11.23;10.00;;;13.90;92.50;;;;;;5013535;28;20487;-53
2022/05/11 02:40:29;;;;;;;12.03;9.63;;;13.90;92.50;;;;;;5002329;28;20487;-53
2022/05/11 02:42:57;;;;;;;12.60;10.07;;;13.80;92.70;;;;;;4998147;28;20972;-53
2022/05/11 02:45:25;;;;;;;11.27;10.07;;;13.80;92.20;;;;;;4999744;28;20516;-53
2022/05/11 02:47:54;;;;;;;11.37;10.17;;;13.80;92.40;;;;;;4996399;28;20499;-53
2022/05/11 02:50:24;;;;;;;16.20;10.40;;;13.80;92.60;;;;;;4998479;28;20484;-53
2022/05/11 02:52:51;;;;;;;15.27;9.90;;;13.80;92.80;;;;;;4997736;28;20827;-53
2022/05/11 02:55:17;;;;;;;10.53;9.43;;;13.70;93.00;;;;;;4990850;28;20488;-53
2022/05/11 02:57:44;;;;;;;13.10;10.53;;;13.80;92.60;;;;;;4996046;28;20495;-53
2022/05/11 03:00:15;;;;;;;14.97;10.70;;;13.70;93.00;;;;;;4991218;28;20503;-53
2022/05/11 03:02:42;;;;;;;13.53;11.03;;;13.70;92.80;;;;;;4994977;28;20488;-54
2022/05/11 03:05:12;;;;;;;12.67;10.57;;;13.70;93.30;;;;;;4987331;28;20537;-54
2022/05/11 03:07:39;;;;;;;15.20;11.97;;;13.70;93.40;;;;;;4990449;28;20894;-53
2022/05/11 03:10:07;;;;;;;15.10;10.40;;;13.60;93.40;;;;;;4998341;28;20495;-53
2022/05/11 03:12:34;;;;;;;13.47;11.10;;;13.60;93.20;;;;;;4966827;28;20495;-54
2022/05/11 03:15:03;;;;;;;11.93;10.43;;;13.50;93.40;;;;;;4997866;28;20520;-54
2022/05/11 03:17:31;;;;;;;15.23;10.37;;;13.50;93.70;;;;;;4996689;28;20492;-54
2022/05/11 03:19:57;;;;;;;11.43;9.73;;;13.50;93.80;;;;;;4971526;28;20566;-54
2022/05/11 03:22:25;;;;;;;10.90;9.33;;;13.40;93.00;;;;;;4973674;28;20486;-54
2022/05/11 03:24:52;;;;;;;12.93;9.30;;;13.40;92.70;;;;;;4994613;28;20493;-54
2022/05/11 03:27:18;;;;;;;14.70;9.50;;;13.30;92.80;;;;;;4975507;28;20552;-53
2022/05/11 03:29:47;;;;;;;16.43;10.53;;;13.30;93.20;;;;;;4925179;28;21005;-53
2022/05/11 03:34:58;;;;;;;10.87;9.70;;;13.20;94.40;;;;;;4980844;28;20491;-54
2022/05/11 03:37:26;;;;;;;11.40;9.80;;;13.10;94.30;;;;;;4960508;28;21192;-55
2022/05/11 03:39:52;;;;;;;13.03;11.00;;;13.00;94.20;;;;;;4993345;28;20498;-54
2022/05/11 03:42:22;;;;;;;11.80;9.77;;;13.10;94.20;;;;;;4953771;28;20900;-54
2022/05/11 03:44:49;;;;;;;11.63;9.83;;;13.10;94.10;;;;;;4921061;28;20829;-54
2022/05/11 03:47:15;;;;;;;14.80;10.67;;;13.10;93.90;;;;;;4998721;28;20494;-54
2022/05/11 03:49:42;;;;;;;12.07;10.60;;;13.20;93.60;;;;;;4984036;28;20491;-55
2022/05/11 03:52:09;;;;;;;11.87;9.57;;;13.20;93.90;;;;;;4988124;28;20486;-54
2022/05/11 03:54:37;;;;;;;11.87;10.20;;;13.20;93.50;;;;;;4979824;28;20488;-55
2022/05/11 03:57:05;;;;;;;12.80;10.30;;;13.30;93.70;;;;;;4997240;28;20490;-54
2022/05/11 03:59:31;;;;;;;15.27;10.23;;;13.30;93.60;;;;;;5015141;28;20487;-55
2022/05/11 04:01:58;;;;;;;11.37;9.77;;;13.30;93.50;;;;;;5019171;28;20544;-54
2022/05/11 04:04:25;;;;;;;12.80;10.03;;;13.20;93.50;;;;;;5017139;28;20491;-54
2022/05/11 04:06:51;;;;;;;14.30;10.67;;;13.20;93.40;;;;;;5018050;28;20568;-55
2022/05/11 04:09:18;;;;;;;12.40;9.10;;;13.20;93.60;;;;;;5020616;28;21049;-54
2022/05/11 04:11:47;;;;;;;11.80;10.20;;;13.20;93.70;;;;;;5020946;28;20857;-55
2022/05/11 04:14:13;;;;;;;12.87;9.87;;;13.10;93.90;;;;;;5021330;28;20494;-55
2022/05/11 04:16:40;;;;;;;17.10;10.50;;;13.10;94.00;;;;;;5018073;28;21094;-55
2022/05/11 04:19:06;;;;;;;11.80;9.80;;;13.10;93.50;;;;;;5021324;28;20487;-55
2022/05/11 04:21:33;;;;;;;15.80;9.97;;;13.10;93.60;;;;;;4986854;28;20546;-54
2022/05/11 04:24:00;;;;;;;13.03;8.73;;;13.20;93.90;;;;;;5017611;28;20478;-55
2022/05/11 04:26:30;;;;;;;11.03;9.60;;;13.20;93.40;;;;;;5019364;28;20493;-54
2022/05/11 04:28:58;;;;;;;17.23;10.03;;;13.30;93.50;;;;;;5019975;28;20490;-54
2022/05/11 04:31:25;;;;;;;12.60;10.10;;;13.30;93.30;;;;;;5019485;28;21033;-54
2022/05/11 04:33:52;;;;;;;10.97;9.77;;;13.40;93.30;;;;;;5011295;28;21064;-55
2022/05/11 04:36:20;;;;;;;12.30;10.10;;;13.50;93.60;;;;;;5019890;28;21332;-55
2022/05/11 04:38:47;;;;;;;13.10;9.43;;;13.50;93.80;;;;;;5019931;28;20483;-55
2022/05/11 04:41:14;;;;;;;13.57;10.40;;;13.50;93.50;;;;;;5021311;28;20879;-55
2022/05/11 04:43:41;;;;;;;11.97;9.37;;;13.50;93.80;;;;;;5020095;28;20482;-55
2022/05/11 04:46:09;;;;;;;14.83;11.00;;;13.50;93.90;;;;;;5019273;28;20491;-55
2022/05/11 04:48:36;;;;;;;11.73;10.10;;;13.50;94.10;;;;;;5017850;28;20514;-55
2022/05/11 04:51:04;;;;;;;12.20;10.10;;;13.40;94.30;;;;;;5017110;28;20477;-55
2022/05/11 04:53:32;;;;;;;11.60;9.80;;;13.50;94.00;;;;;;5000098;28;20490;-55
2022/05/11 04:55:58;;;;;;;10.83;9.60;;;13.50;93.40;;;;;;5020980;28;20482;-55
2022/05/11 04:58:25;;;;;;;11.00;9.83;;;13.60;93.70;;;;;;5019301;28;20494;-55
2022/05/11 05:00:52;;;;;;;11.97;10.00;;;13.60;94.30;;;;;;5020203;28;20479;-55
2022/05/11 05:03:20;;;;;;;10.50;9.43;;;13.70;94.00;;;;;;5019562;28;20490;-56
2022/05/11 05:05:46;;;;;;;13.97;11.87;;;13.70;93.70;;;;;;5019256;28;20475;-56
2022/05/11 05:08:14;;;;;;;16.23;10.93;;;13.80;94.20;;;;;;5018460;28;20490;-56
2022/05/11 05:10:41;;;;;;;11.17;9.90;;;13.90;94.40;;;;;;5020628;28;20479;-55
2022/05/11 05:13:11;;;;;;;11.70;10.50;;;13.90;94.40;;;;;;5020244;28;20560;-55
2022/05/11 05:15:40;;;;;;;11.03;9.60;;;14.00;94.30;;;;;;5019740;28;20493;-55
2022/05/11 05:18:07;;;;;;;11.70;10.20;;;14.00;94.10;;;;;;5017492;28;20571;-55
2022/05/11 05:20:37;;;;;;;14.47;11.80;;;14.10;94.20;;;;;;5004534;28;20527;-54
2022/05/11 05:23:04;;;;;;;15.43;12.00;;;14.20;94.40;;;;;;5019026;28;20970;-55
2022/05/11 05:25:31;;;;;;;13.83;11.33;;;14.30;95.10;;;;;;5019897;28;20987;-54
2022/05/11 05:31:04;;;;;;;15.00;11.57;;;14.40;94.80;;;;;;5017735;28;20582;-54
2022/05/11 05:33:30;;;;;;;13.93;11.77;;;14.70;95.00;;;;;;5016989;28;20800;-54
2022/05/11 05:35:58;;;;;;;14.50;12.37;;;14.80;95.50;;;;;;5017974;28;20480;-55
2022/05/11 05:38:25;;;;;;;15.63;12.80;;;15.00;96.10;;;;;;5015587;28;20898;-55
2022/05/11 05:40:52;;;;;;;15.93;13.10;;;15.20;96.70;;;;;;5018086;28;20494;-55
2022/05/11 05:43:19;;;;;;;14.80;12.60;;;15.40;96.80;;;;;;5019591;28;20483;-55
2022/05/11 05:45:50;;;;;;;14.00;12.23;;;15.70;96.90;;;;;;5018473;28;20484;-55
2022/05/11 05:48:17;;;;;;;14.87;13.33;;;15.90;97.20;;;;;;5004318;28;20477;-56
2022/05/11 05:50:43;;;;;;;14.10;12.13;;;16.00;97.70;;;;;;5015439;28;20740;-56
2022/05/11 05:53:14;;;;;;;15.27;13.07;;;16.20;97.60;;;;;;5018695;28;20873;-55
2022/05/11 05:55:41;;;;;;;15.70;11.77;;;16.40;98.10;;;;;;4994591;28;20503;-55
2022/05/11 05:58:07;;;;;;;14.40;12.87;;;16.60;98.00;;;;;;5022046;28;20484;-55
2022/05/11 06:00:34;;;;;;;17.73;14.80;;;16.90;98.10;;;;;;5016531;28;20489;-55
2022/05/11 06:03:01;;;;;;;13.57;11.90;;;17.10;98.20;;;;;;5015856;28;21220;-55
2022/05/11 06:05:28;;;;;;;14.87;13.27;;;17.30;98.00;;;;;;5019388;28;20480;-55
2022/05/11 06:07:55;;;;;;;14.40;12.90;;;17.60;98.20;;;;;;5005832;28;20635;-55
2022/05/11 06:10:24;;;;;;;14.60;13.10;;;17.70;97.70;;;;;;5013381;28;20588;-55
2022/05/11 06:12:50;;;;;;;15.03;13.50;;;17.90;97.30;;;;;;5014737;28;20485;-55
2022/05/11 06:15:17;;;;;;;13.70;12.27;;;18.20;97.10;;;;;;5012473;28;20568;-55
2022/05/11 06:17:44;;;;;;;13.27;12.07;;;18.40;95.90;;;;;;5015134;28;20906;-57
2022/05/11 06:20:11;;;;;;;14.30;10.60;;;18.50;95.40;;;;;;5016643;28;20543;-55
2022/05/11 06:22:38;;;;;;;13.67;12.27;;;18.80;95.90;;;;;;5016212;28;21076;-53
2022/05/11 06:25:06;;;;;;;16.30;11.47;;;18.90;94.90;;;;;;5016292;28;20485;-56
2022/05/11 06:27:34;;;;;;;12.73;11.40;;;19.10;95.00;;;;;;5015807;28;20491;-56
2022/05/11 06:30:01;;;;;;;13.50;12.17;;;19.30;94.90;;;;;;5014329;28;20489;-55
2022/05/11 06:32:28;;;;;;;13.90;12.33;;;19.30;94.10;;;;;;5016770;28;20480;-56
2022/05/11 06:34:55;;;;;;;13.73;10.87;;;19.40;94.10;;;;;;5017886;28;20481;-56
2022/05/11 06:37:24;;;;;;;11.27;10.17;;;19.60;94.00;;;;;;5017185;28;20468;-59
2022/05/11 06:39:51;;;;;;;12.20;10.90;;;19.70;93.20;;;;;;5016527;28;20554;-56
2022/05/11 06:42:20;;;;;;;10.80;9.70;;;19.90;93.10;;;;;;5018655;28;20473;-54
2022/05/11 06:44:49;;;;;;;13.93;10.23;;;20.10;93.20;;;;;;5016496;28;20480;-55
2022/05/11 06:47:16;;;;;;;13.30;9.90;;;20.20;92.60;;;;;;5012585;28;20496;-55
2022/05/11 06:49:42;;;;;;;11.40;9.50;;;20.40;92.50;;;;;;5017359;28;20694;-56
2022/05/11 06:52:10;;;;;;;13.03;11.73;;;20.60;92.90;;;;;;5016986;28;20915;-54
2022/05/11 07:00:09;;;;;;;15.50;8.10;;;21.00;91.70;;;;;;5018486;28;20570;-55
2022/05/11 07:02:37;;;;;;;11.23;10.23;;;21.10;91.70;;;;;;5017753;28;20562;-55
2022/05/11 07:05:05;;;;;;;10.40;9.27;;;21.20;91.80;;;;;;5020357;28;20482;-54
2022/05/11 07:07:32;;;;;;;9.40;7.60;;;21.30;91.50;;;;;;5010243;28;20573;-55
2022/05/11 07:09:58;;;;;;;10.23;9.00;;;21.40;91.10;;;;;;5017196;28;20485;-57
2022/05/11 07:12:32;;;;;;;10.57;9.47;;;21.50;91.10;;;;;;5018316;28;20486;-55
2022/05/11 07:15:00;;;;;;;10.33;9.30;;;21.60;91.10;;;;;;5019385;28;20603;-55
2022/05/11 07:17:31;;;;;;;11.53;10.10;;;21.70;90.90;;;;;;5016680;28;20538;-55
2022/05/11 07:19:59;;;;;;;11.10;10.00;;;21.80;91.10;;;;;;5016980;28;21028;-56
2022/05/11 07:22:27;;;;;;;10.43;8.53;;;21.90;91.00;;;;;;5017397;28;20946;-54
2022/05/11 07:24:54;;;;;;;10.83;9.83;;;22.00;90.40;;;;;;5019478;28;20673;-54
2022/05/11 07:27:22;;;;;;;14.63;9.80;;;22.10;90.30;;;;;;5020151;28;20494;-55
2022/05/11 07:29:49;;;;;;;16.23;8.60;;;22.20;90.40;;;;;;5016837;28;20586;-54
2022/05/11 07:32:16;;;;;;;10.37;9.50;;;22.40;90.40;;;;;;5019827;28;20472;-54
2022/05/11 07:34:44;;;;;;;10.60;9.60;;;22.40;89.50;;;;;;5019562;28;20488;-55
2022/05/11 07:37:10;;;;;;;12.03;10.40;;;22.50;90.10;;;;;;5019928;28;20492;-54
2022/05/11 07:39:38;;;;;;;10.53;8.67;;;22.60;90.50;;;;;;5017800;28;20490;-54
2022/05/11 07:42:05;;;;;;;8.63;7.83;;;22.70;89.60;;;;;;5021072;28;20494;-55
2022/05/11 07:44:32;;;;;;;9.93;8.97;;;22.90;88.90;;;;;;5020740;28;20483;-54
2022/05/11 07:46:59;;;;;;;9.47;8.67;;;23.00;88.80;;;;;;5023069;28;20492;-55
2022/05/11 07:49:25;;;;;;;10.43;8.07;;;23.10;88.10;;;;;;5021578;28;21125;-54
2022/05/11 07:51:53;;;;;;;9.10;8.20;;;23.10;87.50;;;;;;5020246;28;20487;-53
2022/05/11 07:54:21;;;;;;;8.37;7.70;;;23.20;87.80;;;;;;5021965;28;20498;-54
2022/05/11 08:02:19;;;;;;;8.97;8.07;;;23.40;86.30;;;;;;5016006;28;20563;-54
2022/05/11 08:04:46;;;;;;;8.50;7.80;;;23.50;88.00;;;;;;5020633;28;20503;-55
2022/05/11 08:07:14;;;;;;;9.60;8.27;;;23.50;86.90;;;;;;5019712;28;20494;-54
2022/05/11 08:09:42;;;;;;;10.50;7.30;;;23.50;85.90;;;;;;5017979;28;20492;-54
2022/05/11 08:12:10;;;;;;;11.30;8.73;;;23.80;87.50;;;;;;5019581;28;20494;-53
2022/05/11 08:14:36;;;;;;;9.50;8.37;;;23.90;86.20;;;;;;5020674;28;20488;-55
2022/05/11 08:17:04;;;;;;;8.67;7.80;;;24.00;84.90;;;;;;4996110;28;20851;-53
2022/05/11 08:19:30;;;;;;;8.43;7.60;;;24.20;85.10;;;;;;5018548;28;20778;-54
2022/05/11 08:21:57;;;;;;;7.33;6.73;;;24.40;87.20;;;;;;5020797;28;20480;-54
2022/05/11 08:24:26;;;;;;;11.03;8.20;;;24.50;84.30;;;;;;5002673;28;20484;-53
2022/05/11 08:26:52;;;;;;;12.10;7.60;;;24.60;85.70;;;;;;5023735;28;20480;-53
2022/05/11 08:34:46;;;;;;;8.30;7.50;;;24.80;83.20;;;;;;5019526;28;20580;-54
2022/05/11 08:37:13;;;;;;;11.00;8.03;;;24.80;83.50;;;;;;5018972;28;20845;-54
2022/05/11 08:39:42;;;;;;;8.90;7.67;;;24.90;84.20;;;;;;5018398;28;21023;-53
2022/05/11 08:42:09;;;;;;;10.67;8.13;;;25.00;85.40;;;;;;5017134;28;20485;-53
2022/05/11 08:44:39;;;;;;;8.20;7.50;;;25.00;83.40;;;;;;5011601;28;20550;-54
2022/05/11 08:47:13;;;;;;;8.53;7.57;;;25.00;83.00;;;;;;5027520;28;20472;-54
2022/05/11 08:49:52;;;;;;;7.77;7.07;;;25.20;84.70;;;;;;5019840;28;20484;-54
2022/05/11 08:52:32;;;;;;;8.03;7.30;;;25.30;82.70;;;;;;5018917;28;20508;-55
2022/05/11 08:55:09;;;;;;;7.17;6.47;;;25.30;80.80;;;;;;5000796;28;20478;-54
2022/05/11 08:57:37;;;;;;;6.83;6.23;;;25.40;80.80;;;;;;5018425;28;20484;-53
2022/05/11 09:00:07;;;;;;;7.37;6.70;;;25.40;82.00;;;;;;5016656;28;20532;-53
2022/05/11 09:02:45;;;;;;;7.77;7.17;;;25.50;81.00;;;;;;5012299;28;20998;-54
2022/05/11 09:05:12;;;;;;;8.03;6.17;;;25.60;81.30;;;;;;5011666;28;20738;-53
2022/05/11 09:07:41;;;;;;;8.10;7.30;;;25.80;82.90;;;;;;5018405;28;20896;-53
2022/05/11 09:10:10;;;;;;;8.20;7.30;;;26.00;81.70;;;;;;5018108;28;20480;-53
2022/05/11 09:12:37;;;;;;;6.33;5.83;;;26.10;81.60;;;;;;5013769;28;20481;-51
2022/05/11 09:15:05;;;;;;;11.17;7.30;;;25.60;77.30;;;;;;5019775;28;20500;-54
2022/05/11 09:17:34;;;;;;;7.70;7.07;;;26.00;80.80;;;;;;5015656;28;20484;-53
2022/05/11 09:20:06;;;;;;;8.87;8.00;;;25.90;80.10;;;;;;5012688;28;20584;-54
2022/05/11 09:22:35;;;;;;;6.97;6.20;;;26.00;82.80;;;;;;5020113;28;20503;-54
2022/05/11 09:25:05;;;;;;;7.77;7.07;;;26.10;79.50;;;;;;5019311;28;20499;-54
2022/05/11 09:27:37;;;;;;;7.67;6.97;;;26.30;79.50;;;;;;5017654;28;20477;-53
2022/05/11 09:30:07;;;;;;;7.63;6.70;;;26.30;79.40;;;;;;5008753;28;20507;-53
2022/05/11 09:32:42;;;;;;;8.73;7.83;;;26.20;77.90;;;;;;5008152;28;20564;-53
2022/05/11 09:35:34;;;;;;;13.70;7.13;;;26.30;78.60;;;;;;5010411;28;20823;-54
2022/05/11 09:38:05;;;;;;;7.07;6.37;;;26.30;81.30;;;;;;5015011;28;20562;-54
2022/05/11 09:40:48;;;;;;;7.67;6.87;;;26.40;79.10;;;;;;5019006;28;20472;-53
2022/05/11 09:43:29;;;;;;;7.40;6.70;;;26.40;77.30;;;;;;5018949;28;20480;-54
2022/05/11 09:45:55;;;;;;;6.97;6.47;;;26.70;78.70;;;;;;5012746;28;21400;-54
2022/05/11 09:48:24;;;;;;;6.50;5.60;;;26.60;77.40;;;;;;5016553;28;20459;-54
2022/05/11 09:50:54;;;;;;;9.27;5.60;;;26.60;74.00;;;;;;5004026;28;20496;-53
2022/05/11 09:53:31;;;;;;;6.33;5.10;;;26.60;74.30;;;;;;5013406;28;20589;-53
2022/05/11 09:56:16;;;;;;;6.27;5.50;;;26.60;74.70;;;;;;5017901;28;20501;-53
2022/05/11 09:58:46;;;;;;;9.97;6.10;;;26.70;75.10;;;;;;5003742;28;20948;-53
2022/05/11 10:01:15;;;;;;;6.80;5.93;;;26.80;76.70;;;;;;5017105;28;20537;-53
2022/05/11 10:03:55;;;;;;;8.60;5.67;;;26.80;74.10;;;;;;5017749;28;21013;-53
2022/05/11 10:06:24;;;;;;;6.30;5.10;;;26.90;76.20;;;;;;5018052;28;20462;-53
2022/05/11 10:08:52;;;;;;;10.63;6.13;;;26.80;74.20;;;;;;5005280;28;20487;-54
2022/05/11 10:11:23;;;;;;;8.60;5.10;;;27.00;76.60;;;;;;5015368;28;20520;-54
2022/05/11 10:13:57;;;;;;;6.90;5.23;;;26.90;72.70;;;;;;5018338;28;20491;-53
2022/05/11 10:22:17;;;;;;;8.77;5.20;;;27.00;72.30;;;;;;5006890;28;20538;-54
2022/05/11 10:24:57;;;;;;;5.10;4.67;;;27.00;71.90;;;;;;5005018;28;20839;-54
2022/05/11 10:27:33;;;;;;;5.87;5.37;;;27.10;74.20;;;;;;5016020;28;20481;-53
2022/05/11 10:30:08;;;;;;;11.20;5.30;;;27.10;74.00;;;;;;5016888;28;20762;-53
2022/05/11 10:32:50;;;;;;;6.43;5.37;;;27.10;72.50;;;;;;5017714;28;20854;-52
2022/05/11 10:35:22;;;;;;;6.47;5.83;;;27.20;71.80;;;;;;5018101;28;20476;-53
2022/05/11 10:38:33;;;;;;;13.07;5.10;;;27.20;73.30;;;;;;5016411;28;20576;-53
2022/05/11 10:41:11;;;;;;;6.87;4.63;;;27.30;73.40;;;;;;5015752;28;20688;-52
2022/05/11 10:43:46;;;;;;;8.50;4.90;;;27.30;70.90;;;;;;5005865;28;20476;-55
2022/05/11 10:46:18;;;;;;;10.20;5.70;;;27.60;72.10;;;;;;5006947;28;21001;-53
2022/05/11 10:48:58;;;;;;;11.80;6.50;;;27.40;71.20;;;;;;5017092;28;20889;-53
2022/05/11 10:51:33;;;;;;;5.30;4.80;;;27.30;70.50;;;;;;5018336;28;20571;-53
2022/05/11 10:54:07;;;;;;;6.03;4.83;;;27.30;72.10;;;;;;5016897;28;20476;-52
2022/05/11 10:56:46;;;;;;;6.07;5.47;;;27.20;70.90;;;;;;5013116;28;20480;-52
2022/05/11 10:59:34;;;;;;;6.67;6.07;;;27.40;72.70;;;;;;5001169;28;20867;-53
2022/05/11 11:02:19;;;;;;;6.47;4.27;;;27.40;71.50;;;;;;5016262;28;20455;-53
2022/05/11 11:05:01;;;;;;;6.53;5.20;;;27.50;71.00;;;;;;5007120;28;20480;-52
2022/05/11 11:07:36;;;;;;;6.07;5.13;;;27.50;71.80;;;;;;5011999;28;20451;-52
2022/05/11 11:10:14;;;;;;;5.40;5.00;;;27.60;73.00;;;;;;5017785;28;20548;-53
2022/05/11 11:13:01;;;;;;;7.53;5.77;;;27.60;71.20;;;;;;5008233;28;20944;-53
2022/05/11 11:15:32;;;;;;;5.33;4.30;;;27.30;69.50;;;;;;5015084;28;20543;-53
2022/05/11 11:18:02;;;;;;;6.53;4.97;;;27.50;68.70;;;;;;5014999;28;20615;-51
2022/05/11 11:20:33;;;;;;;6.60;5.50;;;27.40;70.00;;;;;;5013941;28;21050;-52
2022/05/11 11:23:12;;;;;;;9.90;5.13;;;27.40;69.30;;;;;;5017886;28;21580;-52
2022/05/11 11:25:51;;;;;;;7.80;5.10;;;27.70;71.10;;;;;;5016183;28;20476;-53
2022/05/11 11:28:18;;;;;;;9.13;4.50;;;27.90;70.00;;;;;;5007413;28;21052;-56
2022/05/11 11:31:15;;;;;;;5.63;5.23;;;27.80;66.90;;;;;;5016987;28;20492;-52
2022/05/11 11:34:18;;;;;;;10.70;3.87;;;27.70;69.20;;;;;;5013242;28;20491;-52
2022/05/11 11:36:45;;;;;;;7.00;4.77;;;27.60;68.30;;;;;;5000820;28;21217;-53
2022/05/11 11:39:14;;;;;;;7.23;4.80;;;27.90;65.60;;;;;;5017167;28;20459;-53
2022/05/11 11:42:07;;;;;;;5.20;4.80;;;27.90;67.50;;;;;;5015316;28;21044;-53
2022/05/11 11:44:40;;;;;;;7.53;5.30;;;27.90;66.30;;;;;;5001334;28;20447;-52
2022/05/11 11:47:37;;;;;;;6.47;4.10;;;28.20;68.10;;;;;;5016518;28;20464;-52
2022/05/11 11:50:11;;;;;;;5.97;4.70;;;28.10;66.10;;;;;;5017265;28;20479;-52
2022/05/11 11:52:40;;;;;;;8.07;5.33;;;27.90;64.10;;;;;;5016547;28;21022;-52
2022/05/11 11:55:23;;;;;;;11.20;5.17;;;27.90;66.40;;;;;;5016559;28;20990;-52
2022/05/11 11:57:54;;;;;;;5.30;4.80;;;28.00;66.10;;;;;;5014355;28;20539;-53
2022/05/11 12:00:53;;;;;;;5.40;4.23;;;28.10;63.80;;;;;;5005207;28;20455;-53
2022/05/11 12:03:23;;;;;;;5.40;4.63;;;28.00;64.30;;;;;;5000767;28;20862;-52
2022/05/11 12:05:54;;;;;;;12.03;5.47;;;27.90;64.70;;;;;;5019188;28;20559;-52
2022/05/11 12:16:45;;;;;;;11.33;5.43;;;28.60;67.00;;;;;;5018018;28;20478;-53
2022/05/11 12:19:14;;;;;;;5.60;4.70;;;28.50;65.80;;;;;;5016796;28;20454;-53
2022/05/11 12:21:54;;;;;;;7.80;4.07;;;28.60;66.40;;;;;;5020125;28;20491;-54
2022/05/11 12:24:24;;;;;;;10.57;4.03;;;28.60;65.60;;;;;;5020861;28;20462;-52
2022/05/11 12:26:57;;;;;;;5.27;4.73;;;28.60;63.60;;;;;;5016919;28;20990;-52
2022/05/11 12:32:09;;;;;;;7.67;4.67;;;28.40;63.10;;;;;;5018157;28;20689;-55
2022/05/11 12:34:42;;;;;;;6.07;4.83;;;28.30;64.10;;;;;;5020237;28;20487;-52
2022/05/11 12:37:23;;;;;;;5.70;5.20;;;28.40;65.60;;;;;;5014236;28;20491;-52
2022/05/11 12:39:56;;;;;;;5.53;4.40;;;28.40;65.30;;;;;;5003549;28;20474;-52
2022/05/11 12:42:31;;;;;;;7.30;4.93;;;28.40;65.00;;;;;;5020553;28;20550;-53
2022/05/11 12:44:58;;;;;;;8.10;4.47;;;28.50;63.70;;;;;;5018385;28;20916;-50
2022/05/11 12:47:26;;;;;;;5.20;4.70;;;28.10;62.70;;;;;;5020200;28;21034;-51
2022/05/11 12:49:53;;;;;;;9.33;4.20;;;28.20;63.40;;;;;;5015078;28;21043;-53
2022/05/11 12:52:25;;;;;;;8.80;4.77;;;28.40;65.10;;;;;;5020140;28;20757;-52
2022/05/11 12:55:01;;;;;;;7.00;4.77;;;28.60;65.30;;;;;;5019192;28;20875;-53
2022/05/11 12:57:36;;;;;;;8.00;4.00;;;28.80;65.50;;;;;;5012312;28;20470;-53
2022/05/11 13:00:12;;;;;;;6.67;5.20;;;28.60;62.80;;;;;;5019517;28;20846;-51
2022/05/11 13:02:41;;;;;;;5.13;4.63;;;28.60;63.50;;;;;;5020591;28;20542;-53
2022/05/11 13:05:11;;;;;;;5.27;4.43;;;28.60;63.40;;;;;;5018830;28;20457;-52
2022/05/11 13:07:45;;;;;;;8.63;5.17;;;28.80;65.10;;;;;;5013072;28;20635;-53
2022/05/11 13:10:17;;;;;;;5.53;4.83;;;28.80;66.00;;;;;;5010030;28;20476;-52
2022/05/11 13:12:50;;;;;;;6.53;5.37;;;28.60;65.20;;;;;;5004616;28;20459;-52
2022/05/11 13:15:31;;;;;;;5.20;4.70;;;28.80;66.40;;;;;;5020617;28;21571;-52
2022/05/11 13:17:57;;;;;;;5.07;4.60;;;28.70;66.80;;;;;;5011547;28;20980;-52
2022/05/11 13:20:26;;;;;;;7.17;6.47;;;28.80;64.20;;;;;;5006143;28;21064;-53
2022/05/11 13:22:58;;;;;;;7.67;4.77;;;29.00;66.60;;;;;;5018058;28;20460;-53
2022/05/11 13:25:44;;;;;;;6.40;4.57;;;29.10;66.20;;;;;;5018227;28;20484;-53
2022/05/11 13:28:12;;;;;;;6.73;4.60;;;29.20;66.40;;;;;;4989670;28;20520;-52
2022/05/11 13:30:43;;;;;;;7.80;5.03;;;29.20;65.90;;;;;;5020494;28;20481;-51
2022/05/11 13:33:26;;;;;;;7.17;5.00;;;29.10;65.90;;;;;;5017761;28;20505;-52
2022/05/11 13:36:11;;;;;;;5.47;4.93;;;28.80;63.90;;;;;;5008607;28;20451;-53
2022/05/11 13:38:48;;;;;;;3.70;3.40;;;29.10;66.50;;;;;;5012527;28;20448;-53